sensor_id;sensor_type;location;lat;lon;timestamp;P1;durP1;ratioP1;P2;durP2;ratioP2
68923;SDS011;55961;52.156;20.942;2023-08-17T00:01:51;17.35;;;13.10;;
68923;SDS011;55961;52.156;20.942;2023-08-17T00:04:17;16.15;;;13.38;;
68923;SDS011;55961;52.156;20.942;2023-08-17T00:06:43;21.50;;;13.32;;
68923;SDS011;55961;52.156;20.942;2023-08-17T00:09:09;18.17;;;13.47;;
68923;SDS011;55961;52.156;20.942;2023-08-17T00:11:35;18.48;;;12.98;;
68923;SDS011;55961;52.156;20.942;2023-08-17T00:14:01;17.40;;;13.70;;
68923;SDS011;55961;52.156;20.942;2023-08-17T00:16:28;15.30;;;13.30;;
68923;SDS011;55961;52.156;20.942;2023-08-17T00:18:54;17.88;;;13.63;;
68923;SDS011;55961;52.156;20.942;2023-08-17T00:21:20;16.30;;;12.63;;
68923;SDS011;55961;52.156;20.942;2023-08-17T00:23:46;17.55;;;13.38;;
68923;SDS011;55961;52.156;20.942;2023-08-17T00:26:12;22.47;;;13.40;;
68923;SDS011;55961;52.156;20.942;2023-08-17T00:28:39;14.30;;;12.80;;
68923;SDS011;55961;52.156;20.942;2023-08-17T00:31:05;15.32;;;13.73;;
68923;SDS011;55961;52.156;20.942;2023-08-17T00:33:31;20.63;;;13.45;;
68923;SDS011;55961;52.156;20.942;2023-08-17T00:35:57;17.43;;;13.80;;
68923;SDS011;55961;52.156;20.942;2023-08-17T00:38:24;22.48;;;14.13;;
68923;SDS011;55961;52.156;20.942;2023-08-17T00:40:49;18.02;;;13.18;;
68923;SDS011;55961;52.156;20.942;2023-08-17T00:43:16;18.57;;;13.07;;
68923;SDS011;55961;52.156;20.942;2023-08-17T00:45:42;16.33;;;13.13;;
68923;SDS011;55961;52.156;20.942;2023-08-17T00:48:11;18.13;;;13.85;;
68923;SDS011;55961;52.156;20.942;2023-08-17T00:50:37;19.33;;;13.85;;
68923;SDS011;55961;52.156;20.942;2023-08-17T00:53:05;18.40;;;13.77;;
68923;SDS011;55961;52.156;20.942;2023-08-17T00:55:32;15.80;;;13.02;;
68923;SDS011;55961;52.156;20.942;2023-08-17T00:57:58;18.38;;;13.88;;
68923;SDS011;55961;52.156;20.942;2023-08-17T01:00:24;15.70;;;13.05;;
68923;SDS011;55961;52.156;20.942;2023-08-17T01:02:53;17.13;;;13.55;;
68923;SDS011;55961;52.156;20.942;2023-08-17T01:05:20;18.33;;;13.57;;
68923;SDS011;55961;52.156;20.942;2023-08-17T01:07:47;18.52;;;13.98;;
68923;SDS011;55961;52.156;20.942;2023-08-17T01:10:13;16.50;;;14.00;;
68923;SDS011;55961;52.156;20.942;2023-08-17T01:12:44;15.38;;;13.40;;
68923;SDS011;55961;52.156;20.942;2023-08-17T01:15:34;18.60;;;13.30;;
68923;SDS011;55961;52.156;20.942;2023-08-17T01:18:15;16.93;;;13.70;;
68923;SDS011;55961;52.156;20.942;2023-08-17T01:20:47;18.85;;;14.30;;
68923;SDS011;55961;52.156;20.942;2023-08-17T01:23:15;17.48;;;13.10;;
68923;SDS011;55961;52.156;20.942;2023-08-17T01:25:41;17.40;;;14.38;;
68923;SDS011;55961;52.156;20.942;2023-08-17T01:28:07;17.30;;;14.27;;
68923;SDS011;55961;52.156;20.942;2023-08-17T01:30:33;16.33;;;13.37;;
68923;SDS011;55961;52.156;20.942;2023-08-17T01:33:06;18.13;;;13.75;;
68923;SDS011;55961;52.156;20.942;2023-08-17T01:38:12;16.17;;;13.68;;
68923;SDS011;55961;52.156;20.942;2023-08-17T01:40:41;18.40;;;13.70;;
68923;SDS011;55961;52.156;20.942;2023-08-17T01:43:09;19.33;;;14.35;;
68923;SDS011;55961;52.156;20.942;2023-08-17T01:45:35;14.88;;;13.27;;
68923;SDS011;55961;52.156;20.942;2023-08-17T01:48:01;17.80;;;13.90;;
68923;SDS011;55961;52.156;20.942;2023-08-17T01:50:27;19.10;;;13.77;;
68923;SDS011;55961;52.156;20.942;2023-08-17T01:52:53;16.98;;;13.63;;
68923;SDS011;55961;52.156;20.942;2023-08-17T01:55:20;20.30;;;13.88;;
68923;SDS011;55961;52.156;20.942;2023-08-17T01:57:47;21.67;;;14.73;;
68923;SDS011;55961;52.156;20.942;2023-08-17T02:00:13;16.50;;;13.77;;
68923;SDS011;55961;52.156;20.942;2023-08-17T02:02:40;16.92;;;13.38;;
68923;SDS011;55961;52.156;20.942;2023-08-17T02:05:06;16.33;;;13.82;;
68923;SDS011;55961;52.156;20.942;2023-08-17T02:07:32;19.70;;;14.40;;
68923;SDS011;55961;52.156;20.942;2023-08-17T02:09:58;15.52;;;13.63;;
68923;SDS011;55961;52.156;20.942;2023-08-17T02:12:24;16.27;;;14.00;;
68923;SDS011;55961;52.156;20.942;2023-08-17T02:14:50;19.43;;;14.27;;
68923;SDS011;55961;52.156;20.942;2023-08-17T02:17:16;20.42;;;14.38;;
68923;SDS011;55961;52.156;20.942;2023-08-17T02:19:44;17.85;;;13.95;;
68923;SDS011;55961;52.156;20.942;2023-08-17T02:22:10;17.85;;;13.85;;
68923;SDS011;55961;52.156;20.942;2023-08-17T02:24:36;18.25;;;14.68;;
68923;SDS011;55961;52.156;20.942;2023-08-17T02:27:02;16.30;;;14.07;;
68923;SDS011;55961;52.156;20.942;2023-08-17T02:29:28;18.20;;;14.55;;
68923;SDS011;55961;52.156;20.942;2023-08-17T02:31:54;18.27;;;14.15;;
68923;SDS011;55961;52.156;20.942;2023-08-17T02:34:20;15.73;;;13.33;;
68923;SDS011;55961;52.156;20.942;2023-08-17T02:36:46;15.27;;;13.67;;
68923;SDS011;55961;52.156;20.942;2023-08-17T02:39:12;20.88;;;14.10;;
68923;SDS011;55961;52.156;20.942;2023-08-17T02:41:38;16.67;;;13.63;;
68923;SDS011;55961;52.156;20.942;2023-08-17T02:44:04;16.23;;;13.93;;
68923;SDS011;55961;52.156;20.942;2023-08-17T02:46:30;16.00;;;14.30;;
68923;SDS011;55961;52.156;20.942;2023-08-17T02:48:56;18.63;;;15.45;;
68923;SDS011;55961;52.156;20.942;2023-08-17T02:51:22;20.35;;;14.98;;
68923;SDS011;55961;52.156;20.942;2023-08-17T02:53:48;20.07;;;14.27;;
68923;SDS011;55961;52.156;20.942;2023-08-17T02:56:14;20.88;;;14.50;;
68923;SDS011;55961;52.156;20.942;2023-08-17T02:58:40;18.10;;;14.45;;
68923;SDS011;55961;52.156;20.942;2023-08-17T03:01:09;17.05;;;13.52;;
68923;SDS011;55961;52.156;20.942;2023-08-17T03:03:35;17.67;;;13.83;;
68923;SDS011;55961;52.156;20.942;2023-08-17T03:06:02;18.52;;;13.20;;
68923;SDS011;55961;52.156;20.942;2023-08-17T03:08:28;17.48;;;13.95;;
68923;SDS011;55961;52.156;20.942;2023-08-17T03:10:54;17.98;;;14.18;;
68923;SDS011;55961;52.156;20.942;2023-08-17T03:13:20;15.80;;;14.10;;
68923;SDS011;55961;52.156;20.942;2023-08-17T03:15:46;17.95;;;14.90;;
68923;SDS011;55961;52.156;20.942;2023-08-17T03:18:12;18.15;;;14.10;;
68923;SDS011;55961;52.156;20.942;2023-08-17T03:20:38;16.38;;;14.10;;
68923;SDS011;55961;52.156;20.942;2023-08-17T03:23:04;17.10;;;13.27;;
68923;SDS011;55961;52.156;20.942;2023-08-17T03:25:33;16.33;;;13.30;;
68923;SDS011;55961;52.156;20.942;2023-08-17T03:28:00;17.25;;;13.82;;
68923;SDS011;55961;52.156;20.942;2023-08-17T03:30:26;18.73;;;14.23;;
68923;SDS011;55961;52.156;20.942;2023-08-17T03:32:52;20.33;;;13.73;;
68923;SDS011;55961;52.156;20.942;2023-08-17T03:35:18;15.77;;;13.70;;
68923;SDS011;55961;52.156;20.942;2023-08-17T03:37:44;18.58;;;13.63;;
68923;SDS011;55961;52.156;20.942;2023-08-17T03:40:10;17.35;;;13.15;;
68923;SDS011;55961;52.156;20.942;2023-08-17T03:42:37;19.40;;;13.53;;
68923;SDS011;55961;52.156;20.942;2023-08-17T03:45:03;19.75;;;14.13;;
68923;SDS011;55961;52.156;20.942;2023-08-17T03:47:29;18.20;;;13.80;;
68923;SDS011;55961;52.156;20.942;2023-08-17T03:49:55;14.45;;;12.85;;
68923;SDS011;55961;52.156;20.942;2023-08-17T03:52:21;21.45;;;14.57;;
68923;SDS011;55961;52.156;20.942;2023-08-17T03:54:47;23.73;;;14.30;;
68923;SDS011;55961;52.156;20.942;2023-08-17T03:57:13;21.92;;;14.55;;
68923;SDS011;55961;52.156;20.942;2023-08-17T03:59:40;16.33;;;13.45;;
68923;SDS011;55961;52.156;20.942;2023-08-17T04:02:06;16.85;;;13.48;;
68923;SDS011;55961;52.156;20.942;2023-08-17T04:04:32;18.20;;;13.20;;
68923;SDS011;55961;52.156;20.942;2023-08-17T04:06:58;20.33;;;13.45;;
68923;SDS011;55961;52.156;20.942;2023-08-17T04:09:24;16.50;;;13.85;;
68923;SDS011;55961;52.156;20.942;2023-08-17T04:11:50;17.50;;;12.90;;
68923;SDS011;55961;52.156;20.942;2023-08-17T04:14:16;15.68;;;13.15;;
68923;SDS011;55961;52.156;20.942;2023-08-17T04:16:41;16.75;;;12.98;;
68923;SDS011;55961;52.156;20.942;2023-08-17T04:19:08;18.05;;;13.85;;
68923;SDS011;55961;52.156;20.942;2023-08-17T04:21:34;19.27;;;12.93;;
68923;SDS011;55961;52.156;20.942;2023-08-17T04:24:00;18.05;;;13.95;;
68923;SDS011;55961;52.156;20.942;2023-08-17T04:26:25;15.77;;;11.90;;
68923;SDS011;55961;52.156;20.942;2023-08-17T04:28:52;18.73;;;13.23;;
68923;SDS011;55961;52.156;20.942;2023-08-17T04:31:17;16.77;;;12.80;;
68923;SDS011;55961;52.156;20.942;2023-08-17T04:33:43;19.65;;;13.10;;
68923;SDS011;55961;52.156;20.942;2023-08-17T04:36:09;16.30;;;11.87;;
68923;SDS011;55961;52.156;20.942;2023-08-17T04:38:35;14.75;;;12.52;;
68923;SDS011;55961;52.156;20.942;2023-08-17T04:41:01;18.77;;;12.43;;
68923;SDS011;55961;52.156;20.942;2023-08-17T04:43:27;15.52;;;12.40;;
68923;SDS011;55961;52.156;20.942;2023-08-17T04:45:53;14.20;;;12.30;;
68923;SDS011;55961;52.156;20.942;2023-08-17T04:48:19;17.20;;;13.07;;
68923;SDS011;55961;52.156;20.942;2023-08-17T04:50:45;17.15;;;12.60;;
68923;SDS011;55961;52.156;20.942;2023-08-17T04:53:11;19.53;;;12.80;;
68923;SDS011;55961;52.156;20.942;2023-08-17T04:55:37;14.82;;;10.90;;
68923;SDS011;55961;52.156;20.942;2023-08-17T04:58:03;16.92;;;11.88;;
68923;SDS011;55961;52.156;20.942;2023-08-17T05:00:28;17.40;;;12.20;;
68923;SDS011;55961;52.156;20.942;2023-08-17T05:02:55;15.17;;;11.57;;
68923;SDS011;55961;52.156;20.942;2023-08-17T05:05:21;13.93;;;10.43;;
68923;SDS011;55961;52.156;20.942;2023-08-17T05:07:48;16.85;;;11.43;;
68923;SDS011;55961;52.156;20.942;2023-08-17T05:10:14;19.00;;;11.25;;
68923;SDS011;55961;52.156;20.942;2023-08-17T05:12:40;17.08;;;11.00;;
68923;SDS011;55961;52.156;20.942;2023-08-17T05:15:06;15.03;;;10.67;;
68923;SDS011;55961;52.156;20.942;2023-08-17T05:17:33;17.27;;;11.35;;
68923;SDS011;55961;52.156;20.942;2023-08-17T05:19:59;14.95;;;10.25;;
68923;SDS011;55961;52.156;20.942;2023-08-17T05:22:25;15.93;;;10.68;;
68923;SDS011;55961;52.156;20.942;2023-08-17T05:24:52;14.43;;;10.17;;
68923;SDS011;55961;52.156;20.942;2023-08-17T05:27:18;13.65;;;10.20;;
68923;SDS011;55961;52.156;20.942;2023-08-17T05:29:44;17.80;;;10.82;;
68923;SDS011;55961;52.156;20.942;2023-08-17T05:32:10;16.77;;;10.77;;
68923;SDS011;55961;52.156;20.942;2023-08-17T05:34:36;15.10;;;9.83;;
68923;SDS011;55961;52.156;20.942;2023-08-17T05:37:02;20.55;;;11.25;;
68923;SDS011;55961;52.156;20.942;2023-08-17T05:39:28;18.38;;;9.82;;
68923;SDS011;55961;52.156;20.942;2023-08-17T05:41:54;15.15;;;9.70;;
68923;SDS011;55961;52.156;20.942;2023-08-17T05:44:20;17.20;;;9.43;;
68923;SDS011;55961;52.156;20.942;2023-08-17T05:46:46;15.23;;;9.45;;
68923;SDS011;55961;52.156;20.942;2023-08-17T05:49:12;16.25;;;9.55;;
68923;SDS011;55961;52.156;20.942;2023-08-17T05:51:38;12.45;;;9.07;;
68923;SDS011;55961;52.156;20.942;2023-08-17T05:54:04;13.87;;;9.23;;
68923;SDS011;55961;52.156;20.942;2023-08-17T05:56:30;18.33;;;9.40;;
68923;SDS011;55961;52.156;20.942;2023-08-17T05:58:56;16.30;;;9.32;;
68923;SDS011;55961;52.156;20.942;2023-08-17T06:01:22;19.92;;;9.30;;
68923;SDS011;55961;52.156;20.942;2023-08-17T06:03:48;16.83;;;8.93;;
68923;SDS011;55961;52.156;20.942;2023-08-17T06:06:16;16.48;;;8.82;;
68923;SDS011;55961;52.156;20.942;2023-08-17T06:08:42;19.55;;;10.05;;
68923;SDS011;55961;52.156;20.942;2023-08-17T06:11:08;15.48;;;9.50;;
68923;SDS011;55961;52.156;20.942;2023-08-17T06:13:33;19.00;;;9.63;;
68923;SDS011;55961;52.156;20.942;2023-08-17T06:16:01;18.05;;;9.95;;
68923;SDS011;55961;52.156;20.942;2023-08-17T06:18:29;15.98;;;9.95;;
68923;SDS011;55961;52.156;20.942;2023-08-17T06:20:55;12.10;;;9.85;;
68923;SDS011;55961;52.156;20.942;2023-08-17T06:23:21;14.33;;;9.77;;
68923;SDS011;55961;52.156;20.942;2023-08-17T06:25:47;19.05;;;9.77;;
68923;SDS011;55961;52.156;20.942;2023-08-17T06:28:13;23.95;;;11.05;;
68923;SDS011;55961;52.156;20.942;2023-08-17T06:30:39;17.67;;;9.35;;
68923;SDS011;55961;52.156;20.942;2023-08-17T06:33:04;15.73;;;9.80;;
68923;SDS011;55961;52.156;20.942;2023-08-17T06:35:31;16.38;;;8.95;;
68923;SDS011;55961;52.156;20.942;2023-08-17T06:37:56;14.23;;;9.20;;
68923;SDS011;55961;52.156;20.942;2023-08-17T06:40:24;15.57;;;9.30;;
68923;SDS011;55961;52.156;20.942;2023-08-17T06:42:50;12.95;;;9.50;;
68923;SDS011;55961;52.156;20.942;2023-08-17T06:45:17;14.15;;;8.82;;
68923;SDS011;55961;52.156;20.942;2023-08-17T06:47:44;14.63;;;9.13;;
68923;SDS011;55961;52.156;20.942;2023-08-17T06:50:10;15.05;;;9.75;;
68923;SDS011;55961;52.156;20.942;2023-08-17T06:52:36;16.43;;;9.07;;
68923;SDS011;55961;52.156;20.942;2023-08-17T06:55:03;12.27;;;9.23;;
68923;SDS011;55961;52.156;20.942;2023-08-17T06:57:28;16.83;;;9.48;;
68923;SDS011;55961;52.156;20.942;2023-08-17T06:59:54;15.82;;;8.88;;
68923;SDS011;55961;52.156;20.942;2023-08-17T07:02:20;14.30;;;9.57;;
68923;SDS011;55961;52.156;20.942;2023-08-17T07:04:47;12.02;;;8.35;;
68923;SDS011;55961;52.156;20.942;2023-08-17T07:07:12;17.05;;;9.80;;
68923;SDS011;55961;52.156;20.942;2023-08-17T07:09:39;14.50;;;8.90;;
68923;SDS011;55961;52.156;20.942;2023-08-17T07:12:06;13.40;;;8.70;;
68923;SDS011;55961;52.156;20.942;2023-08-17T07:14:32;17.50;;;9.73;;
68923;SDS011;55961;52.156;20.942;2023-08-17T07:16:59;15.30;;;9.80;;
68923;SDS011;55961;52.156;20.942;2023-08-17T07:19:25;12.98;;;8.80;;
68923;SDS011;55961;52.156;20.942;2023-08-17T07:21:51;14.77;;;9.30;;
68923;SDS011;55961;52.156;20.942;2023-08-17T07:24:17;12.77;;;9.13;;
68923;SDS011;55961;52.156;20.942;2023-08-17T07:26:43;13.07;;;9.20;;
68923;SDS011;55961;52.156;20.942;2023-08-17T07:29:09;14.93;;;10.15;;
68923;SDS011;55961;52.156;20.942;2023-08-17T07:31:36;17.58;;;9.57;;
68923;SDS011;55961;52.156;20.942;2023-08-17T07:34:04;13.63;;;9.50;;
68923;SDS011;55961;52.156;20.942;2023-08-17T07:36:31;13.40;;;8.25;;
68923;SDS011;55961;52.156;20.942;2023-08-17T07:38:57;15.85;;;9.35;;
68923;SDS011;55961;52.156;20.942;2023-08-17T07:41:23;16.25;;;9.77;;
68923;SDS011;55961;52.156;20.942;2023-08-17T07:43:50;17.65;;;9.20;;
68923;SDS011;55961;52.156;20.942;2023-08-17T07:46:16;15.23;;;9.07;;
68923;SDS011;55961;52.156;20.942;2023-08-17T07:48:42;17.30;;;9.50;;
68923;SDS011;55961;52.156;20.942;2023-08-17T07:51:07;13.70;;;10.05;;
68923;SDS011;55961;52.156;20.942;2023-08-17T07:53:34;14.00;;;9.88;;
68923;SDS011;55961;52.156;20.942;2023-08-17T07:56:00;15.00;;;9.23;;
68923;SDS011;55961;52.156;20.942;2023-08-17T07:58:26;15.45;;;9.10;;
68923;SDS011;55961;52.156;20.942;2023-08-17T08:00:52;18.02;;;9.77;;
68923;SDS011;55961;52.156;20.942;2023-08-17T08:03:18;13.80;;;9.57;;
68923;SDS011;55961;52.156;20.942;2023-08-17T08:05:44;18.25;;;9.20;;
68923;SDS011;55961;52.156;20.942;2023-08-17T08:08:10;15.75;;;9.27;;
68923;SDS011;55961;52.156;20.942;2023-08-17T08:10:36;15.23;;;9.35;;
68923;SDS011;55961;52.156;20.942;2023-08-17T08:13:02;17.87;;;9.67;;
68923;SDS011;55961;52.156;20.942;2023-08-17T08:15:28;12.00;;;8.75;;
68923;SDS011;55961;52.156;20.942;2023-08-17T08:17:54;15.30;;;9.80;;
68923;SDS011;55961;52.156;20.942;2023-08-17T08:20:20;13.32;;;9.27;;
68923;SDS011;55961;52.156;20.942;2023-08-17T08:22:47;15.13;;;10.37;;
68923;SDS011;55961;52.156;20.942;2023-08-17T08:25:13;14.93;;;10.07;;
68923;SDS011;55961;52.156;20.942;2023-08-17T08:27:39;14.90;;;9.80;;
68923;SDS011;55961;52.156;20.942;2023-08-17T08:30:05;16.70;;;9.90;;
68923;SDS011;55961;52.156;20.942;2023-08-17T08:32:32;14.88;;;9.30;;
68923;SDS011;55961;52.156;20.942;2023-08-17T08:34:57;13.35;;;9.93;;
68923;SDS011;55961;52.156;20.942;2023-08-17T08:37:24;14.38;;;9.57;;
68923;SDS011;55961;52.156;20.942;2023-08-17T08:39:50;13.50;;;10.03;;
68923;SDS011;55961;52.156;20.942;2023-08-17T08:42:18;18.83;;;10.18;;
68923;SDS011;55961;52.156;20.942;2023-08-17T08:44:44;14.77;;;10.07;;
68923;SDS011;55961;52.156;20.942;2023-08-17T08:47:11;17.73;;;9.88;;
68923;SDS011;55961;52.156;20.942;2023-08-17T08:49:38;14.43;;;9.90;;
68923;SDS011;55961;52.156;20.942;2023-08-17T08:52:08;14.55;;;9.85;;
68923;SDS011;55961;52.156;20.942;2023-08-17T08:54:38;11.60;;;9.15;;
68923;SDS011;55961;52.156;20.942;2023-08-17T08:57:08;12.38;;;10.02;;
68923;SDS011;55961;52.156;20.942;2023-08-17T08:59:39;13.70;;;9.45;;
68923;SDS011;55961;52.156;20.942;2023-08-17T09:02:14;14.07;;;9.87;;
68923;SDS011;55961;52.156;20.942;2023-08-17T09:04:43;15.80;;;9.48;;
68923;SDS011;55961;52.156;20.942;2023-08-17T09:07:11;11.82;;;9.80;;
68923;SDS011;55961;52.156;20.942;2023-08-17T09:09:38;11.38;;;9.10;;
68923;SDS011;55961;52.156;20.942;2023-08-17T09:12:07;16.05;;;9.70;;
68923;SDS011;55961;52.156;20.942;2023-08-17T09:14:35;11.10;;;9.10;;
68923;SDS011;55961;52.156;20.942;2023-08-17T09:17:03;19.48;;;9.80;;
68923;SDS011;55961;52.156;20.942;2023-08-17T09:19:31;14.48;;;10.05;;
68923;SDS011;55961;52.156;20.942;2023-08-17T09:22:00;15.40;;;10.07;;
68923;SDS011;55961;52.156;20.942;2023-08-17T09:24:35;14.25;;;9.88;;
68923;SDS011;55961;52.156;20.942;2023-08-17T09:27:02;13.07;;;10.00;;
68923;SDS011;55961;52.156;20.942;2023-08-17T09:29:29;13.55;;;9.80;;
68923;SDS011;55961;52.156;20.942;2023-08-17T09:32:06;11.02;;;9.43;;
68923;SDS011;55961;52.156;20.942;2023-08-17T09:34:32;13.23;;;9.57;;
68923;SDS011;55961;52.156;20.942;2023-08-17T09:37:05;13.52;;;9.02;;
68923;SDS011;55961;52.156;20.942;2023-08-17T09:39:31;10.57;;;9.10;;
68923;SDS011;55961;52.156;20.942;2023-08-17T09:41:57;11.25;;;8.50;;
68923;SDS011;55961;52.156;20.942;2023-08-17T09:44:24;15.50;;;9.50;;
68923;SDS011;55961;52.156;20.942;2023-08-17T09:46:51;12.40;;;8.50;;
68923;SDS011;55961;52.156;20.942;2023-08-17T09:49:17;10.40;;;8.20;;
68923;SDS011;55961;52.156;20.942;2023-08-17T09:51:44;12.37;;;8.80;;
68923;SDS011;55961;52.156;20.942;2023-08-17T09:54:23;12.13;;;8.02;;
68923;SDS011;55961;52.156;20.942;2023-08-17T09:56:52;12.40;;;8.13;;
68923;SDS011;55961;52.156;20.942;2023-08-17T09:59:19;11.82;;;7.70;;
68923;SDS011;55961;52.156;20.942;2023-08-17T10:01:47;13.43;;;8.33;;
68923;SDS011;55961;52.156;20.942;2023-08-17T10:04:15;10.85;;;7.75;;
68923;SDS011;55961;52.156;20.942;2023-08-17T10:06:51;12.30;;;7.43;;
68923;SDS011;55961;52.156;20.942;2023-08-17T10:09:22;11.02;;;6.28;;
68923;SDS011;55961;52.156;20.942;2023-08-17T10:11:54;10.73;;;7.00;;
68923;SDS011;55961;52.156;20.942;2023-08-17T10:14:29;8.90;;;6.67;;
68923;SDS011;55961;52.156;20.942;2023-08-17T10:17:03;11.32;;;6.75;;
68923;SDS011;55961;52.156;20.942;2023-08-17T10:19:49;7.38;;;5.45;;
68923;SDS011;55961;52.156;20.942;2023-08-17T10:22:19;9.45;;;6.57;;
68923;SDS011;55961;52.156;20.942;2023-08-17T10:24:55;8.70;;;6.20;;
68923;SDS011;55961;52.156;20.942;2023-08-17T10:27:23;12.03;;;6.80;;
68923;SDS011;55961;52.156;20.942;2023-08-17T10:29:50;9.02;;;5.55;;
68923;SDS011;55961;52.156;20.942;2023-08-17T10:32:17;8.02;;;6.95;;
68923;SDS011;55961;52.156;20.942;2023-08-17T10:34:43;8.55;;;6.43;;
68923;SDS011;55961;52.156;20.942;2023-08-17T10:37:10;9.55;;;6.97;;
68923;SDS011;55961;52.156;20.942;2023-08-17T10:39:42;11.33;;;7.17;;
68923;SDS011;55961;52.156;20.942;2023-08-17T10:42:11;8.85;;;6.47;;
68923;SDS011;55961;52.156;20.942;2023-08-17T10:47:18;9.57;;;6.88;;
68923;SDS011;55961;52.156;20.942;2023-08-17T10:50:01;13.50;;;6.57;;
68923;SDS011;55961;52.156;20.942;2023-08-17T10:52:31;9.25;;;6.10;;
68923;SDS011;55961;52.156;20.942;2023-08-17T10:55:01;10.88;;;6.20;;
68923;SDS011;55961;52.156;20.942;2023-08-17T11:00:16;6.72;;;4.88;;
68923;SDS011;55961;52.156;20.942;2023-08-17T11:03:01;8.27;;;4.10;;
68923;SDS011;55961;52.156;20.942;2023-08-17T11:08:21;8.05;;;4.30;;
68923;SDS011;55961;52.156;20.942;2023-08-17T11:11:03;7.18;;;4.28;;
68923;SDS011;55961;52.156;20.942;2023-08-17T11:13:37;6.20;;;3.97;;
68923;SDS011;55961;52.156;20.942;2023-08-17T11:16:04;7.43;;;3.67;;
68923;SDS011;55961;52.156;20.942;2023-08-17T11:18:32;6.30;;;3.40;;
68923;SDS011;55961;52.156;20.942;2023-08-17T11:20:58;6.47;;;3.50;;
68923;SDS011;55961;52.156;20.942;2023-08-17T11:23:28;5.35;;;3.67;;
68923;SDS011;55961;52.156;20.942;2023-08-17T11:25:54;5.78;;;3.88;;
68923;SDS011;55961;52.156;20.942;2023-08-17T11:28:21;6.10;;;3.50;;
68923;SDS011;55961;52.156;20.942;2023-08-17T11:30:59;5.20;;;3.35;;
68923;SDS011;55961;52.156;20.942;2023-08-17T11:33:27;7.72;;;3.20;;
68923;SDS011;55961;52.156;20.942;2023-08-17T11:35:56;6.10;;;3.35;;
68923;SDS011;55961;52.156;20.942;2023-08-17T11:38:30;5.88;;;3.13;;
68923;SDS011;55961;52.156;20.942;2023-08-17T11:40:59;5.27;;;3.27;;
68923;SDS011;55961;52.156;20.942;2023-08-17T11:43:27;6.53;;;3.33;;
68923;SDS011;55961;52.156;20.942;2023-08-17T11:45:57;6.80;;;3.45;;
68923;SDS011;55961;52.156;20.942;2023-08-17T11:48:23;6.47;;;3.38;;
68923;SDS011;55961;52.156;20.942;2023-08-17T11:50:49;5.88;;;3.47;;
68923;SDS011;55961;52.156;20.942;2023-08-17T11:53:16;6.97;;;3.57;;
68923;SDS011;55961;52.156;20.942;2023-08-17T11:55:42;7.57;;;3.45;;
68923;SDS011;55961;52.156;20.942;2023-08-17T11:58:08;10.43;;;3.88;;
68923;SDS011;55961;52.156;20.942;2023-08-17T12:00:35;7.47;;;3.50;;
68923;SDS011;55961;52.156;20.942;2023-08-17T12:03:02;5.75;;;3.13;;
68923;SDS011;55961;52.156;20.942;2023-08-17T12:05:30;8.57;;;3.50;;
68923;SDS011;55961;52.156;20.942;2023-08-17T12:07:58;8.27;;;3.35;;
68923;SDS011;55961;52.156;20.942;2023-08-17T12:10:28;8.70;;;3.40;;
68923;SDS011;55961;52.156;20.942;2023-08-17T12:12:57;5.70;;;3.07;;
68923;SDS011;55961;52.156;20.942;2023-08-17T12:15:29;8.27;;;3.67;;
68923;SDS011;55961;52.156;20.942;2023-08-17T12:17:58;5.72;;;3.15;;
68923;SDS011;55961;52.156;20.942;2023-08-17T12:20:24;5.57;;;3.08;;
68923;SDS011;55961;52.156;20.942;2023-08-17T12:22:50;5.10;;;2.95;;
68923;SDS011;55961;52.156;20.942;2023-08-17T12:25:16;6.27;;;3.00;;
68923;SDS011;55961;52.156;20.942;2023-08-17T12:27:46;9.95;;;3.63;;
68923;SDS011;55961;52.156;20.942;2023-08-17T12:30:14;5.22;;;3.20;;
68923;SDS011;55961;52.156;20.942;2023-08-17T12:32:52;5.53;;;3.10;;
68923;SDS011;55961;52.156;20.942;2023-08-17T12:35:18;7.00;;;3.20;;
68923;SDS011;55961;52.156;20.942;2023-08-17T12:37:47;5.82;;;3.40;;
68923;SDS011;55961;52.156;20.942;2023-08-17T12:40:13;6.05;;;3.53;;
68923;SDS011;55961;52.156;20.942;2023-08-17T12:42:39;7.53;;;3.33;;
68923;SDS011;55961;52.156;20.942;2023-08-17T12:45:05;9.10;;;3.60;;
68923;SDS011;55961;52.156;20.942;2023-08-17T12:47:31;8.15;;;3.67;;
68923;SDS011;55961;52.156;20.942;2023-08-17T12:49:57;14.63;;;4.03;;
68923;SDS011;55961;52.156;20.942;2023-08-17T12:52:27;37.57;;;6.53;;
68923;SDS011;55961;52.156;20.942;2023-08-17T12:54:53;29.05;;;5.82;;
68923;SDS011;55961;52.156;20.942;2023-08-17T12:57:20;8.25;;;3.78;;
68923;SDS011;55961;52.156;20.942;2023-08-17T12:59:46;5.47;;;3.83;;
68923;SDS011;55961;52.156;20.942;2023-08-17T13:02:12;7.55;;;3.90;;
68923;SDS011;55961;52.156;20.942;2023-08-17T13:04:37;6.97;;;3.80;;
68923;SDS011;55961;52.156;20.942;2023-08-17T13:07:03;7.82;;;3.00;;
68923;SDS011;55961;52.156;20.942;2023-08-17T13:09:29;7.37;;;3.40;;
68923;SDS011;55961;52.156;20.942;2023-08-17T13:11:55;7.18;;;3.60;;
68923;SDS011;55961;52.156;20.942;2023-08-17T13:14:21;15.15;;;4.55;;
68923;SDS011;55961;52.156;20.942;2023-08-17T13:16:51;8.55;;;3.85;;
68923;SDS011;55961;52.156;20.942;2023-08-17T13:19:17;8.23;;;4.20;;
68923;SDS011;55961;52.156;20.942;2023-08-17T13:21:43;7.93;;;3.50;;
68923;SDS011;55961;52.156;20.942;2023-08-17T13:24:10;5.03;;;3.70;;
68923;SDS011;55961;52.156;20.942;2023-08-17T13:26:36;6.15;;;3.38;;
68923;SDS011;55961;52.156;20.942;2023-08-17T13:29:02;7.85;;;3.47;;
68923;SDS011;55961;52.156;20.942;2023-08-17T13:31:29;7.13;;;3.53;;
68923;SDS011;55961;52.156;20.942;2023-08-17T13:33:57;4.95;;;3.67;;
68923;SDS011;55961;52.156;20.942;2023-08-17T13:36:23;7.25;;;3.75;;
68923;SDS011;55961;52.156;20.942;2023-08-17T13:38:49;10.00;;;3.60;;
68923;SDS011;55961;52.156;20.942;2023-08-17T13:41:15;6.30;;;3.77;;
68923;SDS011;55961;52.156;20.942;2023-08-17T13:43:41;7.47;;;4.25;;
68923;SDS011;55961;52.156;20.942;2023-08-17T13:46:07;6.05;;;4.28;;
68923;SDS011;55961;52.156;20.942;2023-08-17T13:48:33;6.90;;;4.45;;
68923;SDS011;55961;52.156;20.942;2023-08-17T13:50:59;8.00;;;4.50;;
68923;SDS011;55961;52.156;20.942;2023-08-17T13:53:25;7.72;;;4.38;;
68923;SDS011;55961;52.156;20.942;2023-08-17T13:55:51;6.88;;;4.30;;
68923;SDS011;55961;52.156;20.942;2023-08-17T13:58:17;9.27;;;4.40;;
68923;SDS011;55961;52.156;20.942;2023-08-17T14:00:43;8.05;;;4.47;;
68923;SDS011;55961;52.156;20.942;2023-08-17T14:03:09;8.45;;;5.18;;
68923;SDS011;55961;52.156;20.942;2023-08-17T14:05:35;8.38;;;4.60;;
68923;SDS011;55961;52.156;20.942;2023-08-17T14:08:00;6.77;;;4.40;;
68923;SDS011;55961;52.156;20.942;2023-08-17T14:10:29;7.95;;;4.25;;
68923;SDS011;55961;52.156;20.942;2023-08-17T14:12:55;8.50;;;4.82;;
68923;SDS011;55961;52.156;20.942;2023-08-17T14:15:21;6.90;;;4.97;;
68923;SDS011;55961;52.156;20.942;2023-08-17T14:17:47;7.50;;;4.47;;
68923;SDS011;55961;52.156;20.942;2023-08-17T14:20:13;8.95;;;4.45;;
68923;SDS011;55961;52.156;20.942;2023-08-17T14:22:39;6.28;;;4.13;;
68923;SDS011;55961;52.156;20.942;2023-08-17T14:25:06;5.00;;;3.57;;
68923;SDS011;55961;52.156;20.942;2023-08-17T14:27:32;6.03;;;4.07;;
68923;SDS011;55961;52.156;20.942;2023-08-17T14:29:58;8.57;;;4.05;;